sensor_id;sensor_type;location;lat;lon;timestamp;pressure;altitude;pressure_sealevel;temperature;humidity
3178;BME280;38141;42.666;23.344;2023-01-25T00:02:30;95725.38;;;2.29;100.00
3178;BME280;38141;42.666;23.344;2023-01-25T00:04:57;95684.56;;;2.06;100.00
3178;BME280;38141;42.666;23.344;2023-01-25T00:07:27;95681.03;;;1.97;100.00
3178;BME280;38141;42.666;23.344;2023-01-25T00:09:54;95669.06;;;1.86;100.00
3178;BME280;38141;42.666;23.344;2023-01-25T00:15:44;95772.81;;;2.77;100.00
3178;BME280;38141;42.666;23.344;2023-01-25T00:18:11;95614.72;;;1.60;100.00
3178;BME280;38141;42.666;23.344;2023-01-25T00:24:06;95700.34;;;1.94;100.00
3178;BME280;38141;42.666;23.344;2023-01-25T00:26:36;95744.16;;;2.46;100.00
3178;BME280;38141;42.666;23.344;2023-01-25T00:29:04;95704.88;;;2.38;100.00
3178;BME280;38141;42.666;23.344;2023-01-25T00:31:39;95703.78;;;2.39;100.00
3178;BME280;38141;42.666;23.344;2023-01-25T00:34:42;95766.13;;;2.65;100.00
3178;BME280;38141;42.666;23.344;2023-01-25T00:37:13;95753.53;;;2.13;100.00
3178;BME280;38141;42.666;23.344;2023-01-25T00:39:45;95757.84;;;2.22;100.00
3178;BME280;38141;42.666;23.344;2023-01-25T00:42:13;95635.91;;;1.43;100.00
3178;BME280;38141;42.666;23.344;2023-01-25T00:44:41;95779.69;;;2.47;100.00
3178;BME280;38141;42.666;23.344;2023-01-25T00:47:15;95667.53;;;1.71;100.00
3178;BME280;38141;42.666;23.344;2023-01-25T00:49:43;95744.84;;;2.30;100.00
3178;BME280;38141;42.666;23.344;2023-01-25T00:52:10;95661.75;;;1.78;100.00
3178;BME280;38141;42.666;23.344;2023-01-25T00:54:38;95640.28;;;1.61;100.00
3178;BME280;38141;42.666;23.344;2023-01-25T00:57:06;95677.28;;;1.98;100.00
3178;BME280;38141;42.666;23.344;2023-01-25T00:59:33;95791.38;;;2.59;100.00
3178;BME280;38141;42.666;23.344;2023-01-25T01:02:00;95703.84;;;2.03;100.00
3178;BME280;38141;42.666;23.344;2023-01-25T01:04:27;95660.91;;;1.33;100.00
3178;BME280;38141;42.666;23.344;2023-01-25T01:06:55;95716.75;;;1.88;100.00
3178;BME280;38141;42.666;23.344;2023-01-25T01:09:43;95770.63;;;2.34;100.00
3178;BME280;38141;42.666;23.344;2023-01-25T01:12:11;95631.69;;;1.28;100.00
3178;BME280;38141;42.666;23.344;2023-01-25T01:14:39;95801.75;;;2.16;100.00
3178;BME280;38141;42.666;23.344;2023-01-25T01:17:06;95740.81;;;1.96;100.00
3178;BME280;38141;42.666;23.344;2023-01-25T01:19:33;95670.66;;;1.38;100.00
3178;BME280;38141;42.666;23.344;2023-01-25T01:22:01;95739.22;;;2.09;100.00
3178;BME280;38141;42.666;23.344;2023-01-25T01:24:28;95698.66;;;1.62;100.00
3178;BME280;38141;42.666;23.344;2023-01-25T01:33:41;95727.00;;;1.94;100.00
3178;BME280;38141;42.666;23.344;2023-01-25T01:36:09;95729.69;;;1.94;100.00
3178;BME280;38141;42.666;23.344;2023-01-25T01:38:36;95741.16;;;1.95;100.00
3178;BME280;38141;42.666;23.344;2023-01-25T01:41:03;95714.94;;;1.97;100.00
3178;BME280;38141;42.666;23.344;2023-01-25T01:43:30;95724.69;;;2.01;100.00
3178;BME280;38141;42.666;23.344;2023-01-25T01:45:59;95689.66;;;1.72;100.00
3178;BME280;38141;42.666;23.344;2023-01-25T01:48:46;95749.75;;;2.14;100.00
3178;BME280;38141;42.666;23.344;2023-01-25T01:51:17;95764.75;;;2.23;100.00
3178;BME280;38141;42.666;23.344;2023-01-25T01:53:48;95651.00;;;1.47;100.00
3178;BME280;38141;42.666;23.344;2023-01-25T01:56:31;95711.13;;;1.89;100.00
3178;BME280;38141;42.666;23.344;2023-01-25T01:59:00;95597.22;;;0.96;100.00
3178;BME280;38141;42.666;23.344;2023-01-25T02:01:32;95654.41;;;1.61;100.00
3178;BME280;38141;42.666;23.344;2023-01-25T02:04:02;95714.34;;;2.00;100.00
3178;BME280;38141;42.666;23.344;2023-01-25T02:06:35;95646.38;;;1.39;100.00
3178;BME280;38141;42.666;23.344;2023-01-25T02:09:12;95615.88;;;1.67;100.00
3178;BME280;38141;42.666;23.344;2023-01-25T02:12:17;95744.59;;;2.62;100.00
3178;BME280;38141;42.666;23.344;2023-01-25T02:14:48;95632.84;;;1.94;100.00
3178;BME280;38141;42.666;23.344;2023-01-25T02:17:18;95717.06;;;2.53;100.00
3178;BME280;38141;42.666;23.344;2023-01-25T02:23:14;95668.66;;;2.23;100.00
3178;BME280;38141;42.666;23.344;2023-01-25T02:25:44;95748.84;;;2.63;100.00
3178;BME280;38141;42.666;23.344;2023-01-25T02:28:14;64974.94;;;-144.03;100.00
3178;BME280;38141;42.666;23.344;2023-01-25T02:30:42;95694.63;;;2.32;100.00
3178;BME280;38141;42.666;23.344;2023-01-25T02:33:09;95704.84;;;2.60;100.00
3178;BME280;38141;42.666;23.344;2023-01-25T02:35:40;95667.56;;;2.24;100.00
3178;BME280;38141;42.666;23.344;2023-01-25T02:38:09;95707.63;;;2.55;100.00
3178;BME280;38141;42.666;23.344;2023-01-25T02:40:44;95718.94;;;2.52;100.00
3178;BME280;38141;42.666;23.344;2023-01-25T02:43:14;95580.53;;;1.62;100.00
3178;BME280;38141;42.666;23.344;2023-01-25T02:45:45;95637.75;;;2.22;100.00
3178;BME280;38141;42.666;23.344;2023-01-25T02:51:23;95724.31;;;2.61;100.00
3178;BME280;38141;42.666;23.344;2023-01-25T02:54:09;95605.28;;;1.54;100.00
3178;BME280;38141;42.666;23.344;2023-01-25T03:03:25;95719.81;;;2.70;100.00
3178;BME280;38141;42.666;23.344;2023-01-25T03:05:52;95695.81;;;2.48;100.00
3178;BME280;38141;42.666;23.344;2023-01-25T03:08:19;95685.28;;;2.20;100.00
3178;BME280;38141;42.666;23.344;2023-01-25T03:10:55;95651.69;;;1.97;100.00
3178;BME280;38141;42.666;23.344;2023-01-25T03:13:22;95702.44;;;2.28;100.00
3178;BME280;38141;42.666;23.344;2023-01-25T03:15:49;95692.56;;;2.06;100.00
3178;BME280;38141;42.666;23.344;2023-01-25T03:18:16;95724.81;;;2.18;100.00
3178;BME280;38141;42.666;23.344;2023-01-25T03:20:45;64974.94;;;-144.03;100.00
3178;BME280;38141;42.666;23.344;2023-01-25T03:23:12;64974.94;;;-144.03;100.00
3178;BME280;38141;42.666;23.344;2023-01-25T03:25:39;64974.94;;;-144.03;100.00
3178;BME280;38141;42.666;23.344;2023-01-25T03:28:06;64974.94;;;-144.03;100.00
3178;BME280;38141;42.666;23.344;2023-01-25T03:30:33;64974.94;;;-144.03;100.00
3178;BME280;38141;42.666;23.344;2023-01-25T03:33:00;64974.94;;;-144.03;100.00
3178;BME280;38141;42.666;23.344;2023-01-25T03:35:27;64974.94;;;-144.03;100.00
3178;BME280;38141;42.666;23.344;2023-01-25T03:38:02;64974.94;;;-144.03;100.00
3178;BME280;38141;42.666;23.344;2023-01-25T03:40:29;64974.94;;;-144.03;100.00
3178;BME280;38141;42.666;23.344;2023-01-25T03:42:57;64974.94;;;-144.03;100.00
3178;BME280;38141;42.666;23.344;2023-01-25T03:45:24;64974.94;;;-144.03;100.00
3178;BME280;38141;42.666;23.344;2023-01-25T03:47:50;64974.94;;;-144.03;100.00
3178;BME280;38141;42.666;23.344;2023-01-25T03:50:17;64974.94;;;-144.03;100.00
3178;BME280;38141;42.666;23.344;2023-01-25T03:52:47;64974.94;;;-144.03;100.00
3178;BME280;38141;42.666;23.344;2023-01-25T03:55:29;64974.94;;;-144.03;100.00
3178;BME280;38141;42.666;23.344;2023-01-25T03:57:56;64974.94;;;-144.03;100.00
3178;BME280;38141;42.666;23.344;2023-01-25T04:00:23;64974.94;;;-144.03;100.00
3178;BME280;38141;42.666;23.344;2023-01-25T04:02:50;64974.94;;;-144.03;100.00
3178;BME280;38141;42.666;23.344;2023-01-25T04:05:17;64974.94;;;-144.03;100.00
3178;BME280;38141;42.666;23.344;2023-01-25T04:07:44;64974.94;;;-144.03;100.00
3178;BME280;38141;42.666;23.344;2023-01-25T04:10:11;64974.94;;;-144.03;100.00
3178;BME280;38141;42.666;23.344;2023-01-25T04:12:39;64974.94;;;-144.03;100.00
3178;BME280;38141;42.666;23.344;2023-01-25T04:18:28;64974.94;;;-144.03;100.00
3178;BME280;38141;42.666;23.344;2023-01-25T04:23:49;64974.94;;;-144.03;100.00
3178;BME280;38141;42.666;23.344;2023-01-25T04:26:22;64974.94;;;-144.03;100.00
3178;BME280;38141;42.666;23.344;2023-01-25T04:28:51;64974.94;;;-144.03;100.00
3178;BME280;38141;42.666;23.344;2023-01-25T04:31:25;64974.94;;;-144.03;100.00
3178;BME280;38141;42.666;23.344;2023-01-25T04:33:53;95682.72;;;2.38;100.00
3178;BME280;38141;42.666;23.344;2023-01-25T04:36:20;95629.09;;;1.95;100.00
3178;BME280;38141;42.666;23.344;2023-01-25T04:38:47;95695.44;;;2.63;100.00
3178;BME280;38141;42.666;23.344;2023-01-25T04:41:14;95722.25;;;2.89;100.00
3178;BME280;38141;42.666;23.344;2023-01-25T04:43:41;95692.50;;;2.20;100.00
3178;BME280;38141;42.666;23.344;2023-01-25T04:46:10;95690.91;;;2.19;100.00
3178;BME280;38141;42.666;23.344;2023-01-25T04:48:37;95699.50;;;2.07;100.00
3178;BME280;38141;42.666;23.344;2023-01-25T04:51:05;95599.81;;;1.59;100.00
3178;BME280;38141;42.666;23.344;2023-01-25T04:53:51;95733.38;;;2.29;100.00
3178;BME280;38141;42.666;23.344;2023-01-25T04:56:37;95605.28;;;1.54;100.00
3178;BME280;38141;42.666;23.344;2023-01-25T04:59:04;95702.44;;;2.06;100.00
3178;BME280;38141;42.666;23.344;2023-01-25T05:08:49;95704.56;;;2.40;100.00
3178;BME280;38141;42.666;23.344;2023-01-25T05:11:30;95709.13;;;2.17;100.00
3178;BME280;38141;42.666;23.344;2023-01-25T05:14:19;95624.78;;;1.85;100.00
3178;BME280;38141;42.666;23.344;2023-01-25T05:17:02;95712.78;;;2.21;100.00
3178;BME280;38141;42.666;23.344;2023-01-25T05:19:53;95551.94;;;1.31;100.00
3178;BME280;38141;42.666;23.344;2023-01-25T05:22:25;95590.72;;;1.60;100.00
3178;BME280;38141;42.666;23.344;2023-01-25T05:24:53;95688.75;;;2.21;100.00
3178;BME280;38141;42.666;23.344;2023-01-25T05:27:23;95692.94;;;2.13;100.00
3178;BME280;38141;42.666;23.344;2023-01-25T05:29:49;95624.28;;;1.83;100.00
3178;BME280;38141;42.666;23.344;2023-01-25T05:32:22;95605.16;;;1.59;100.00
3178;BME280;38141;42.666;23.344;2023-01-25T05:34:51;95592.72;;;1.18;100.00
3178;BME280;38141;42.666;23.344;2023-01-25T05:37:24;95669.81;;;1.64;100.00
3178;BME280;38141;42.666;23.344;2023-01-25T05:39:55;95725.88;;;2.31;100.00
3178;BME280;38141;42.666;23.344;2023-01-25T05:42:25;95634.81;;;2.10;100.00
3178;BME280;38141;42.666;23.344;2023-01-25T05:44:52;95622.28;;;2.11;100.00
3178;BME280;38141;42.666;23.344;2023-01-25T05:47:22;95583.09;;;1.45;100.00
3178;BME280;38141;42.666;23.344;2023-01-25T05:49:51;95579.47;;;1.63;100.00
3178;BME280;38141;42.666;23.344;2023-01-25T05:52:19;95648.78;;;2.07;100.00
3178;BME280;38141;42.666;23.344;2023-01-25T05:54:50;95738.25;;;2.49;100.00
3178;BME280;38141;42.666;23.344;2023-01-25T05:57:23;95635.81;;;1.92;100.00
3178;BME280;38141;42.666;23.344;2023-01-25T05:59:54;95552.59;;;1.37;100.00
3178;BME280;38141;42.666;23.344;2023-01-25T06:02:40;95747.34;;;2.48;100.00
3178;BME280;38141;42.666;23.344;2023-01-25T06:05:09;95691.03;;;2.14;100.00
3178;BME280;38141;42.666;23.344;2023-01-25T06:07:52;95744.56;;;2.31;100.00
3178;BME280;38141;42.666;23.344;2023-01-25T06:10:20;95595.31;;;1.10;100.00
3178;BME280;38141;42.666;23.344;2023-01-25T06:12:49;95596.03;;;1.38;100.00
3178;BME280;38141;42.666;23.344;2023-01-25T06:15:21;95739.34;;;2.26;100.00
3178;BME280;38141;42.666;23.344;2023-01-25T06:17:48;95689.16;;;1.70;100.00
3178;BME280;38141;42.666;23.344;2023-01-25T06:20:15;95704.38;;;2.14;100.00
3178;BME280;38141;42.666;23.344;2023-01-25T06:22:51;95584.00;;;1.40;100.00
3178;BME280;38141;42.666;23.344;2023-01-25T06:26:06;95558.13;;;1.41;100.00
3178;BME280;38141;42.666;23.344;2023-01-25T06:28:47;95676.78;;;2.41;100.00
3178;BME280;38141;42.666;23.344;2023-01-25T06:31:43;95747.59;;;2.69;100.00
3178;BME280;38141;42.666;23.344;2023-01-25T06:34:29;95739.78;;;2.50;100.00
3178;BME280;38141;42.666;23.344;2023-01-25T06:37:09;95733.81;;;2.45;100.00
3178;BME280;38141;42.666;23.344;2023-01-25T06:43:10;95622.06;;;1.54;100.00
3178;BME280;38141;42.666;23.344;2023-01-25T06:45:56;95699.31;;;2.04;100.00
3178;BME280;38141;42.666;23.344;2023-01-25T06:48:45;95773.66;;;2.41;100.00
3178;BME280;38141;42.666;23.344;2023-01-25T06:51:20;95737.47;;;2.27;100.00
3178;BME280;38141;42.666;23.344;2023-01-25T06:54:06;95545.56;;;0.83;100.00
3178;BME280;38141;42.666;23.344;2023-01-25T06:56:46;95742.69;;;2.32;100.00
3178;BME280;38141;42.666;23.344;2023-01-25T06:59:28;95735.88;;;2.03;100.00
3178;BME280;38141;42.666;23.344;2023-01-25T07:02:04;95680.81;;;1.85;100.00
3178;BME280;38141;42.666;23.344;2023-01-25T07:04:39;95695.34;;;1.79;100.00
3178;BME280;38141;42.666;23.344;2023-01-25T07:07:12;95610.16;;;1.38;100.00
3178;BME280;38141;42.666;23.344;2023-01-25T07:09:39;95566.13;;;1.05;100.00
3178;BME280;38141;42.666;23.344;2023-01-25T07:12:06;95643.47;;;1.63;100.00
3178;BME280;38141;42.666;23.344;2023-01-25T07:14:33;95671.50;;;1.83;100.00
3178;BME280;38141;42.666;23.344;2023-01-25T07:17:02;95742.91;;;2.21;100.00
3178;BME280;38141;42.666;23.344;2023-01-25T07:19:29;95721.84;;;1.75;100.00
3178;BME280;38141;42.666;23.344;2023-01-25T07:21:55;95760.00;;;1.62;100.00
3178;BME280;38141;42.666;23.344;2023-01-25T07:24:22;95720.69;;;1.68;100.00
3178;BME280;38141;42.666;23.344;2023-01-25T07:26:53;95731.63;;;2.24;100.00
3178;BME280;38141;42.666;23.344;2023-01-25T07:29:20;95647.78;;;1.72;100.00
3178;BME280;38141;42.666;23.344;2023-01-25T07:31:47;95748.72;;;2.23;100.00
3178;BME280;38141;42.666;23.344;2023-01-25T07:34:15;95689.25;;;1.65;100.00
3178;BME280;38141;42.666;23.344;2023-01-25T07:36:42;95709.81;;;1.87;100.00
3178;BME280;38141;42.666;23.344;2023-01-25T07:39:09;95744.56;;;2.09;100.00
3178;BME280;38141;42.666;23.344;2023-01-25T07:41:36;95651.84;;;1.56;100.00
3178;BME280;38141;42.666;23.344;2023-01-25T07:44:03;95690.34;;;1.64;100.00
3178;BME280;38141;42.666;23.344;2023-01-25T07:46:30;95733.75;;;2.14;100.00
3178;BME280;38141;42.666;23.344;2023-01-25T07:48:57;95745.88;;;2.20;100.00
3178;BME280;38141;42.666;23.344;2023-01-25T07:51:29;95750.97;;;2.30;100.00
3178;BME280;38141;42.666;23.344;2023-01-25T07:53:57;95759.53;;;2.18;100.00
3178;BME280;38141;42.666;23.344;2023-01-25T07:56:26;95734.91;;;1.99;100.00
3178;BME280;38141;42.666;23.344;2023-01-25T07:58:55;95736.22;;;2.10;100.00
3178;BME280;38141;42.666;23.344;2023-01-25T08:01:24;95714.81;;;2.02;100.00
3178;BME280;38141;42.666;23.344;2023-01-25T08:03:54;95743.38;;;2.23;100.00
3178;BME280;38141;42.666;23.344;2023-01-25T08:06:23;95715.63;;;2.24;100.00
3178;BME280;38141;42.666;23.344;2023-01-25T08:08:53;95675.25;;;1.95;100.00
3178;BME280;38141;42.666;23.344;2023-01-25T08:11:22;95762.00;;;2.15;100.00
3178;BME280;38141;42.666;23.344;2023-01-25T08:13:49;95742.97;;;2.30;100.00
3178;BME280;38141;42.666;23.344;2023-01-25T08:19:38;95785.84;;;2.11;100.00
3178;BME280;38141;42.666;23.344;2023-01-25T08:22:06;95749.97;;;2.17;100.00
3178;BME280;38141;42.666;23.344;2023-01-25T08:24:41;95749.41;;;2.29;100.00
3178;BME280;38141;42.666;23.344;2023-01-25T08:27:09;95749.69;;;2.28;100.00
3178;BME280;38141;42.666;23.344;2023-01-25T08:29:35;95752.06;;;2.29;100.00
3178;BME280;38141;42.666;23.344;2023-01-25T08:32:02;95644.72;;;1.29;100.00
3178;BME280;38141;42.666;23.344;2023-01-25T08:34:30;95693.00;;;2.00;100.00
3178;BME280;38141;42.666;23.344;2023-01-25T08:36:57;95748.56;;;2.20;100.00
3178;BME280;38141;42.666;23.344;2023-01-25T08:39:24;95733.63;;;2.19;100.00
3178;BME280;38141;42.666;23.344;2023-01-25T08:41:53;95659.09;;;1.78;100.00
3178;BME280;38141;42.666;23.344;2023-01-25T08:44:21;95648.25;;;1.97;100.00
3178;BME280;38141;42.666;23.344;2023-01-25T08:46:50;95707.72;;;2.19;100.00
3178;BME280;38141;42.666;23.344;2023-01-25T08:49:17;95736.41;;;2.58;100.00
3178;BME280;38141;42.666;23.344;2023-01-25T08:51:44;95691.72;;;2.50;100.00
3178;BME280;38141;42.666;23.344;2023-01-25T08:54:12;95732.63;;;2.59;100.00
3178;BME280;38141;42.666;23.344;2023-01-25T08:56:40;95743.59;;;2.49;100.00
3178;BME280;38141;42.666;23.344;2023-01-25T08:59:09;95733.50;;;2.46;100.00
3178;BME280;38141;42.666;23.344;2023-01-25T09:01:36;95670.88;;;1.99;100.00
3178;BME280;38141;42.666;23.344;2023-01-25T09:04:03;95651.34;;;1.68;100.00
3178;BME280;38141;42.666;23.344;2023-01-25T09:06:32;95682.84;;;2.10;100.00
3178;BME280;38141;42.666;23.344;2023-01-25T09:08:58;95664.56;;;1.95;100.00
3178;BME280;38141;42.666;23.344;2023-01-25T09:11:25;95692.50;;;2.20;100.00
3178;BME280;38141;42.666;23.344;2023-01-25T09:13:52;95634.97;;;1.83;100.00
3178;BME280;38141;42.666;23.344;2023-01-25T09:16:22;95730.09;;;2.54;100.00
3178;BME280;38141;42.666;23.344;2023-01-25T09:18:54;95566.56;;;1.87;100.00
3178;BME280;38141;42.666;23.344;2023-01-25T09:21:21;95630.50;;;2.23;100.00
3178;BME280;38141;42.666;23.344;2023-01-25T09:23:51;95618.72;;;1.93;100.00
3178;BME280;38141;42.666;23.344;2023-01-25T09:26:19;95698.28;;;3.06;100.00
3178;BME280;38141;42.666;23.344;2023-01-25T09:28:48;95684.44;;;3.04;100.00
3178;BME280;38141;42.666;23.344;2023-01-25T09:31:16;95611.03;;;2.53;100.00
3178;BME280;38141;42.666;23.344;2023-01-25T09:33:45;95697.16;;;2.98;100.00
3178;BME280;38141;42.666;23.344;2023-01-25T09:36:12;95692.22;;;2.83;100.00
3178;BME280;38141;42.666;23.344;2023-01-25T09:38:39;95640.91;;;2.64;100.00
3178;BME280;38141;42.666;23.344;2023-01-25T09:41:18;95674.59;;;2.82;100.00
3178;BME280;38141;42.666;23.344;2023-01-25T09:44:08;95678.84;;;2.83;100.00
3178;BME280;38141;42.666;23.344;2023-01-25T09:46:40;95605.25;;;2.29;100.00
3178;BME280;38141;42.666;23.344;2023-01-25T09:49:57;95678.34;;;3.12;100.00
3178;BME280;38141;42.666;23.344;2023-01-25T09:52:44;95678.19;;;2.78;100.00
3178;BME280;38141;42.666;23.344;2023-01-25T09:55:21;95672.94;;;2.95;100.00
3178;BME280;38141;42.666;23.344;2023-01-25T09:57:50;95679.09;;;2.64;100.00
3178;BME280;38141;42.666;23.344;2023-01-25T10:00:31;95640.91;;;2.64;100.00
3178;BME280;38141;42.666;23.344;2023-01-25T10:03:02;95555.19;;;1.95;100.00
3178;BME280;38141;42.666;23.344;2023-01-25T10:05:41;95575.38;;;2.18;100.00
3178;BME280;38141;42.666;23.344;2023-01-25T10:08:15;95526.66;;;2.04;100.00
3178;BME280;38141;42.666;23.344;2023-01-25T10:10:47;95478.47;;;1.70;100.00
3178;BME280;38141;42.666;23.344;2023-01-25T10:13:18;95493.34;;;1.62;100.00
3178;BME280;38141;42.666;23.344;2023-01-25T10:15:49;95503.31;;;2.18;100.00
3178;BME280;38141;42.666;23.344;2023-01-25T10:18:20;95558.59;;;2.66;100.00
3178;BME280;38141;42.666;23.344;2023-01-25T10:21:15;95634.19;;;3.40;100.00
3178;BME280;38141;42.666;23.344;2023-01-25T10:26:44;95627.56;;;3.64;100.00
3178;BME280;38141;42.666;23.344;2023-01-25T10:29:16;95628.38;;;3.81;100.00
3178;BME280;38141;42.666;23.344;2023-01-25T10:31:46;95608.41;;;3.44;100.00
3178;BME280;38141;42.666;23.344;2023-01-25T10:34:17;95571.88;;;3.05;100.00
3178;BME280;38141;42.666;23.344;2023-01-25T10:36:48;95508.19;;;2.90;100.00
3178;BME280;38141;42.666;23.344;2023-01-25T10:39:17;95590.63;;;3.40;100.00
3178;BME280;38141;42.666;23.344;2023-01-25T10:41:48;95542.81;;;3.30;100.00
3178;BME280;38141;42.666;23.344;2023-01-25T10:44:16;95550.50;;;3.48;100.00
3178;BME280;38141;42.666;23.344;2023-01-25T10:46:59;95599.88;;;3.94;100.00
3178;BME280;38141;42.666;23.344;2023-01-25T10:49:38;95418.13;;;2.65;100.00
3178;BME280;38141;42.666;23.344;2023-01-25T10:52:16;95521.56;;;3.42;100.00
3178;BME280;38141;42.666;23.344;2023-01-25T10:54:44;95532.41;;;3.20;100.00
3178;BME280;38141;42.666;23.344;2023-01-25T10:57:14;95592.00;;;3.89;100.00
3178;BME280;38141;42.666;23.344;2023-01-25T10:59:45;95581.94;;;3.94;100.00
3178;BME280;38141;42.666;23.344;2023-01-25T11:02:38;95557.06;;;3.68;100.00
3178;BME280;38141;42.666;23.344;2023-01-25T11:05:31;95578.47;;;3.94;100.00
3178;BME280;38141;42.666;23.344;2023-01-25T11:08:20;95580.63;;;4.00;100.00
3178;BME280;38141;42.666;23.344;2023-01-25T11:10:49;95503.94;;;3.24;100.00
3178;BME280;38141;42.666;23.344;2023-01-25T11:13:22;95489.47;;;3.42;100.00
3178;BME280;38141;42.666;23.344;2023-01-25T11:15:52;95570.78;;;3.75;100.00
3178;BME280;38141;42.666;23.344;2023-01-25T11:18:22;95607.59;;;3.78;100.00
3178;BME280;38141;42.666;23.344;2023-01-25T11:21:04;95448.72;;;3.36;100.00
3178;BME280;38141;42.666;23.344;2023-01-25T11:23:32;95478.72;;;3.59;100.00
3178;BME280;38141;42.666;23.344;2023-01-25T11:26:14;95558.03;;;4.27;100.00
3178;BME280;38141;42.666;23.344;2023-01-25T11:28:42;95535.28;;;4.13;100.00
3178;BME280;38141;42.666;23.344;2023-01-25T11:31:12;95510.44;;;3.95;100.00
3178;BME280;38141;42.666;23.344;2023-01-25T11:33:40;95536.56;;;3.98;100.00
3178;BME280;38141;42.666;23.344;2023-01-25T11:36:25;95464.63;;;3.33;100.00
3178;BME280;38141;42.666;23.344;2023-01-25T11:39:09;95513.00;;;3.74;100.00
3178;BME280;38141;42.666;23.344;2023-01-25T11:41:50;95519.09;;;3.92;100.00
3178;BME280;38141;42.666;23.344;2023-01-25T11:44:38;95403.66;;;3.18;100.00
3178;BME280;38141;42.666;23.344;2023-01-25T11:47:19;95498.53;;;3.75;100.00
3178;BME280;38141;42.666;23.344;2023-01-25T11:49:57;95448.72;;;3.36;100.00
3178;BME280;38141;42.666;23.344;2023-01-25T11:52:35;95413.56;;;3.64;100.00
3178;BME280;38141;42.666;23.344;2023-01-25T11:55:19;95514.22;;;4.32;100.00
3178;BME280;38141;42.666;23.344;2023-01-25T11:58:06;95493.72;;;4.07;100.00
3178;BME280;38141;42.666;23.344;2023-01-25T12:00:47;95503.06;;;4.30;100.00
3178;BME280;38141;42.666;23.344;2023-01-25T12:03:43;95476.22;;;4.09;100.00
3178;BME280;38141;42.666;23.344;2023-01-25T12:06:21;95503.75;;;4.10;100.00
3178;BME280;38141;42.666;23.344;2023-01-25T12:09:00;95505.25;;;4.28;100.00
3178;BME280;38141;42.666;23.344;2023-01-25T12:11:44;95484.22;;;4.18;100.00
3178;BME280;38141;42.666;23.344;2023-01-25T12:14:20;95393.59;;;3.61;100.00
3178;BME280;38141;42.666;23.344;2023-01-25T12:17:14;95374.31;;;3.47;100.00
3178;BME280;38141;42.666;23.344;2023-01-25T12:19:54;95366.34;;;3.30;100.00
3178;BME280;38141;42.666;23.344;2023-01-25T12:22:41;95363.72;;;3.12;100.00
3178;BME280;38141;42.666;23.344;2023-01-25T12:25:20;95482.88;;;4.03;100.00
3178;BME280;38141;42.666;23.344;2023-01-25T12:28:00;95486.19;;;3.91;100.00
3178;BME280;38141;42.666;23.344;2023-01-25T12:30:37;95381.59;;;3.29;100.00
3178;BME280;38141;42.666;23.344;2023-01-25T12:33:11;95393.44;;;3.11;100.00
3178;BME280;38141;42.666;23.344;2023-01-25T12:35:43;95384.75;;;3.23;100.00
3178;BME280;38141;42.666;23.344;2023-01-25T12:38:14;95476.78;;;3.85;100.00
3178;BME280;38141;42.666;23.344;2023-01-25T12:40:51;95373.03;;;2.89;100.00
3178;BME280;38141;42.666;23.344;2023-01-25T12:43:27;95386.47;;;3.27;100.00
3178;BME280;38141;42.666;23.344;2023-01-25T12:45:58;95478.69;;;3.85;100.00
3178;BME280;38141;42.666;23.344;2023-01-25T12:48:29;95369.44;;;2.85;100.00
3178;BME280;38141;42.666;23.344;2023-01-25T12:50:59;95454.97;;;3.66;100.00
3178;BME280;38141;42.666;23.344;2023-01-25T12:53:28;95471.19;;;3.61;100.00
3178;BME280;38141;42.666;23.344;2023-01-25T12:55:59;95501.69;;;3.60;100.00
3178;BME280;38141;42.666;23.344;2023-01-25T12:58:37;95394.53;;;3.01;100.00
3178;BME280;38141;42.666;23.344;2023-01-25T13:01:14;95325.91;;;2.85;100.00
3178;BME280;38141;42.666;23.344;2023-01-25T13:03:55;95403.47;;;3.23;100.00
3178;BME280;38141;42.666;23.344;2023-01-25T13:06:32;95367.22;;;2.87;100.00
3178;BME280;38141;42.666;23.344;2023-01-25T13:09:08;95366.59;;;2.90;100.00
3178;BME280;38141;42.666;23.344;2023-01-25T13:11:39;95442.63;;;3.36;100.00
3178;BME280;38141;42.666;23.344;2023-01-25T13:14:37;95453.88;;;3.50;100.00
3178;BME280;38141;42.666;23.344;2023-01-25T13:17:23;95352.13;;;2.83;100.00
3178;BME280;38141;42.666;23.344;2023-01-25T13:19:54;95354.34;;;2.81;100.00
3178;BME280;38141;42.666;23.344;2023-01-25T13:22:59;95430.63;;;3.42;100.00
3178;BME280;38141;42.666;23.344;2023-01-25T13:25:26;95379.13;;;3.07;100.00
3178;BME280;38141;42.666;23.344;2023-01-25T13:28:38;95435.66;;;3.43;100.00
3178;BME280;38141;42.666;23.344;2023-01-25T13:31:07;95429.38;;;3.39;100.00
3178;BME280;38141;42.666;23.344;2023-01-25T13:33:34;95440.28;;;3.26;100.00
3178;BME280;38141;42.666;23.344;2023-01-25T13:36:36;95440.22;;;3.43;100.00
3178;BME280;38141;42.666;23.344;2023-01-25T13:42:14;95439.00;;;3.14;100.00
3178;BME280;38141;42.666;23.344;2023-01-25T13:44:44;95457.25;;;3.21;100.00
3178;BME280;38141;42.666;23.344;2023-01-25T13:47:16;95471.25;;;3.35;100.00
3178;BME280;38141;42.666;23.344;2023-01-25T13:49:47;95336.59;;;2.50;100.00
3178;BME280;38141;42.666;23.344;2023-01-25T13:52:17;95445.09;;;3.41;100.00
3178;BME280;38141;42.666;23.344;2023-01-25T13:54:45;95431.47;;;3.25;100.00
3178;BME280;38141;42.666;23.344;2023-01-25T13:57:13;95364.53;;;2.87;100.00
3178;BME280;38141;42.666;23.344;2023-01-25T13:59:40;95450.78;;;3.39;100.00
3178;BME280;38141;42.666;23.344;2023-01-25T14:02:16;95459.25;;;3.41;100.00
3178;BME280;38141;42.666;23.344;2023-01-25T14:04:45;95455.03;;;3.40;100.00
3178;BME280;38141;42.666;23.344;2023-01-25T14:07:15;95367.88;;;2.58;100.00
3178;BME280;38141;42.666;23.344;2023-01-25T14:09:43;95274.75;;;1.88;100.00
3178;BME280;38141;42.666;23.344;2023-01-25T14:12:28;95345.06;;;2.01;100.00
3178;BME280;38141;42.666;23.344;2023-01-25T14:14:56;95447.81;;;3.15;100.00
3178;BME280;38141;42.666;23.344;2023-01-25T14:17:24;95365.66;;;2.78;100.00
3178;BME280;38141;42.666;23.344;2023-01-25T14:19:52;95452.19;;;3.28;100.00
3178;BME280;38141;42.666;23.344;2023-01-25T14:22:23;95447.50;;;3.17;100.00